Decoded Metar for OEJN (JEDDAH in SAUDI ARABIA) (IATA:JED) | Meteo·Mobile Aviation Weather
aviador You're here:

OEJN Decoded Metar

JEDDAH in SAUDI ARABIA
Report Time2018-09-21 03:00:00
UTC Time2018-09-21 03:43:39
Flight Rules mvfr MVFR
Wind280° at 03 kt
W.Decomp.*RWY 34: 1.4 kt HW 2.7 kt LCW
W.Rank280° ranks 8
Current wind is below 280° avg. (8.9)
Visibility7000 m
Phenomena:N/A
Clouds:Scattered 035 Hf
Expected CloudBase > 800 ft AGL from Temp-Dew spread
CeilingNone
Temp29°C (ISA +14)
Dew Point27°C (89% RH)
Heat Index36.8°C
QNH1006 hPa
Density Alt2,369 ft
Elevation49 ft
Report Wrong Elevation
Raw Report
METAR OEJN 210300Z 28003KT 7000 SCT035 29/27 Q1006 NOSIG=

Extra information for OEJN:More info

Metar Taf Metar & Taf Last 4 Metars F.Rules Stats Wind Profile Meteogram Temp Stats Airport Information Weather charts Add Link Nearby VenuesMetar ALERT Operation Metar Decoded Social comments